createdAt,value
2022-12-29T00:01:39.813Z,9.10
2022-12-29T00:04:28.695Z,9.00
2022-12-29T00:07:17.380Z,9.00
2022-12-29T00:10:07.877Z,8.90
2022-12-29T00:13:15.338Z,8.80
2022-12-29T00:16:04.178Z,8.70
2022-12-29T00:18:53.211Z,8.50
2022-12-29T00:21:59.310Z,8.40
2022-12-29T00:25:05.371Z,8.40
2022-12-29T00:28:11.470Z,8.30
2022-12-29T00:31:20.926Z,8.30
2022-12-29T00:34:30.148Z,8.20
2022-12-29T00:37:39.273Z,8.20
2022-12-29T00:40:45.352Z,8.20
2022-12-29T00:43:51.449Z,8.20
2022-12-29T00:46:43.412Z,8.20
2022-12-29T00:49:31.460Z,8.20
2022-12-29T00:52:20.148Z,8.10
2022-12-29T00:55:09.321Z,8.10
2022-12-29T00:57:57.880Z,8.10
2022-12-29T01:00:46.529Z,8.10
2022-12-29T01:03:37.431Z,8.10
2022-12-29T01:06:26.336Z,8.10
2022-12-29T01:09:32.355Z,8.10
2022-12-29T01:12:41.634Z,8.20
2022-12-29T01:15:30.470Z,8.10
2022-12-29T01:18:19.101Z,8.10
2022-12-29T01:21:09.313Z,8.10
2022-12-29T01:23:58.350Z,8.10
2022-12-29T01:26:47.622Z,8.10
2022-12-29T01:29:36.280Z,8.10
2022-12-29T01:32:25.231Z,8.10
2022-12-29T01:35:13.888Z,8.10
2022-12-29T01:38:04.183Z,8.10
2022-12-29T01:40:52.930Z,8.10
2022-12-29T01:43:43.942Z,8.10
2022-12-29T01:46:37.060Z,8.20
2022-12-29T01:49:30.387Z,8.20
2022-12-29T01:52:19.013Z,8.20
2022-12-29T01:55:12.017Z,8.20
2022-12-29T01:58:04.058Z,8.20
2022-12-29T02:00:52.858Z,8.20
2022-12-29T02:03:41.630Z,8.20
2022-12-29T02:06:35.540Z,8.30
2022-12-29T02:09:24.789Z,8.30
2022-12-29T02:12:15.420Z,8.30
2022-12-29T02:15:07.919Z,8.30
2022-12-29T02:18:10.255Z,8.30
2022-12-29T02:21:36.320Z,8.40
2022-12-29T02:24:58.539Z,8.40
2022-12-29T02:28:05.995Z,8.40
2022-12-29T02:31:06.379Z,8.40
2022-12-29T02:34:05.994Z,8.30
2022-12-29T02:37:05.062Z,8.30
2022-12-29T02:39:58.031Z,8.30
2022-12-29T02:42:50.801Z,8.30
2022-12-29T02:45:47.444Z,8.30
2022-12-29T02:48:45.415Z,8.20
2022-12-29T02:51:38.244Z,8.30
2022-12-29T02:54:43.426Z,8.20
2022-12-29T02:57:34.549Z,8.30
2022-12-29T03:00:23.246Z,8.20
2022-12-29T03:03:22.965Z,8.20
2022-12-29T03:06:38.364Z,8.20
2022-12-29T03:09:37.478Z,8.20
2022-12-29T03:12:49.169Z,8.20
2022-12-29T03:16:03.438Z,8.20
2022-12-29T03:18:58.852Z,8.10
2022-12-29T03:22:11.612Z,8.20
2022-12-29T03:25:04.489Z,8.20
2022-12-29T03:27:57.598Z,8.20
2022-12-29T03:30:47.775Z,8.30
2022-12-29T03:33:38.499Z,8.20
2022-12-29T03:36:32.919Z,8.20
2022-12-29T03:39:25.518Z,8.20
2022-12-29T03:42:17.312Z,8.30
2022-12-29T03:45:08.593Z,8.30
2022-12-29T03:47:57.158Z,8.30
2022-12-29T03:50:45.781Z,8.30
2022-12-29T03:53:34.347Z,8.30
2022-12-29T03:56:24.312Z,8.40
2022-12-29T03:59:12.884Z,8.40
2022-12-29T04:02:01.666Z,8.40
2022-12-29T04:04:50.337Z,8.50
2022-12-29T04:07:38.991Z,8.50
2022-12-29T04:10:27.594Z,8.50
2022-12-29T04:13:17.999Z,8.50
2022-12-29T04:16:07.449Z,8.40
2022-12-29T04:18:56.030Z,8.40
2022-12-29T04:21:44.569Z,8.40
2022-12-29T04:24:33.088Z,8.50
2022-12-29T04:27:22.261Z,8.50
2022-12-29T04:30:13.703Z,8.50
2022-12-29T04:33:02.601Z,8.50
2022-12-29T04:35:51.373Z,8.50
2022-12-29T04:38:39.958Z,8.40
2022-12-29T04:41:28.569Z,8.40
2022-12-29T04:44:17.378Z,8.40
2022-12-29T04:47:08.219Z,8.40
2022-12-29T04:49:56.759Z,8.40
2022-12-29T04:52:45.339Z,8.40
2022-12-29T04:55:33.930Z,8.50
2022-12-29T04:58:23.519Z,8.50
2022-12-29T05:01:12.253Z,8.60
2022-12-29T05:04:02.367Z,8.60
2022-12-29T05:06:50.984Z,8.60
2022-12-29T05:09:39.568Z,8.60
2022-12-29T05:12:28.190Z,8.50
2022-12-29T05:15:16.860Z,8.50
2022-12-29T05:18:05.662Z,8.50
2022-12-29T05:20:55.678Z,8.50
2022-12-29T05:23:44.270Z,8.50
2022-12-29T05:26:32.840Z,8.40
2022-12-29T05:29:21.402Z,8.50
2022-12-29T05:32:10.891Z,8.40
2022-12-29T05:34:59.470Z,8.50
2022-12-29T05:37:49.592Z,8.40
2022-12-29T05:40:38.425Z,8.40
2022-12-29T05:43:27.090Z,8.40
2022-12-29T05:46:15.754Z,8.50
2022-12-29T05:49:04.383Z,8.60
2022-12-29T05:51:52.954Z,8.60
2022-12-29T05:54:42.855Z,8.60
2022-12-29T05:57:31.431Z,8.60
2022-12-29T06:00:20.297Z,8.60
2022-12-29T06:03:09.183Z,8.50
2022-12-29T06:05:57.930Z,8.50
2022-12-29T06:08:46.613Z,8.50
2022-12-29T06:11:36.690Z,8.50
2022-12-29T06:14:25.292Z,8.50
2022-12-29T06:17:13.858Z,8.60
2022-12-29T06:20:02.427Z,8.60
2022-12-29T06:22:51.174Z,8.60
2022-12-29T06:25:39.761Z,8.60
2022-12-29T06:28:29.822Z,8.60
2022-12-29T06:31:18.443Z,8.70
2022-12-29T06:34:08.706Z,8.60
2022-12-29T06:36:57.440Z,8.50
2022-12-29T06:39:46.040Z,8.50
2022-12-29T06:42:34.740Z,8.40
2022-12-29T06:45:24.726Z,8.40
2022-12-29T06:48:13.329Z,8.40
2022-12-29T06:51:01.873Z,8.30
2022-12-29T06:53:50.460Z,8.30
2022-12-29T06:56:39.049Z,8.30
2022-12-29T06:59:27.732Z,8.30
2022-12-29T07:02:19.379Z,8.30
2022-12-29T07:05:08.757Z,8.20
2022-12-29T07:07:57.472Z,8.20
2022-12-29T07:10:46.150Z,8.20
2022-12-29T07:13:34.861Z,8.20
2022-12-29T07:16:23.919Z,8.20
2022-12-29T07:19:14.010Z,8.30
2022-12-29T07:22:02.604Z,8.30
2022-12-29T07:24:51.153Z,8.20
2022-12-29T07:27:39.770Z,8.30
2022-12-29T07:30:28.591Z,8.30
2022-12-29T07:33:17.230Z,8.30
2022-12-29T07:36:08.482Z,8.30
2022-12-29T07:38:57.240Z,8.30
2022-12-29T07:41:45.834Z,8.40
2022-12-29T07:44:34.434Z,8.50
2022-12-29T07:47:23.170Z,8.50
2022-12-29T07:50:12.124Z,8.50
2022-12-29T07:53:02.151Z,8.50
2022-12-29T07:55:50.806Z,8.60
2022-12-29T07:58:39.379Z,8.60
2022-12-29T08:01:28.000Z,8.60
2022-12-29T08:04:16.949Z,8.70
2022-12-29T08:07:05.568Z,8.70
2022-12-29T08:09:55.598Z,8.80
2022-12-29T08:12:45.022Z,8.70
2022-12-29T08:15:33.730Z,8.70
2022-12-29T08:18:22.523Z,8.70
2022-12-29T08:21:11.138Z,8.50
2022-12-29T08:24:00.292Z,8.50
2022-12-29T08:26:50.390Z,8.40
2022-12-29T08:29:38.986Z,8.30
2022-12-29T08:32:27.671Z,8.30
2022-12-29T08:35:16.359Z,8.30
2022-12-29T08:38:04.999Z,8.30
2022-12-29T08:40:54.119Z,8.30
2022-12-29T08:43:47.531Z,8.20
2022-12-29T08:46:36.352Z,8.20
2022-12-29T08:49:25.016Z,8.10
2022-12-29T08:52:13.608Z,8.10
2022-12-29T08:55:02.179Z,8.10
2022-12-29T08:57:50.698Z,8.10
2022-12-29T09:00:40.691Z,8.10
2022-12-29T09:04:04.409Z,8.20
2022-12-29T09:06:40.757Z,8.20
2022-12-29T09:09:29.468Z,8.20
2022-12-29T09:12:18.730Z,8.20
2022-12-29T09:15:08.744Z,8.20
2022-12-29T09:18:04.365Z,8.20
2022-12-29T09:20:58.470Z,8.20
2022-12-29T09:23:52.632Z,8.20
2022-12-29T09:26:47.104Z,8.20
2022-12-29T09:29:36.322Z,8.20
2022-12-29T09:32:32.652Z,8.30
2022-12-29T09:35:25.713Z,8.30
2022-12-29T09:38:18.069Z,8.40
2022-12-29T09:41:20.841Z,8.30
2022-12-29T09:44:18.547Z,8.40
2022-12-29T09:47:12.221Z,8.40
2022-12-29T09:50:07.542Z,8.50
2022-12-29T09:53:05.775Z,8.50
2022-12-29T09:55:56.772Z,8.50
2022-12-29T10:01:29.192Z,8.50
2022-12-29T10:04:20.510Z,8.60
2022-12-29T10:07:29.780Z,8.50
2022-12-29T10:10:32.878Z,8.50
2022-12-29T10:13:34.885Z,8.60
2022-12-29T10:16:31.675Z,8.70
2022-12-29T10:19:37.719Z,8.80
2022-12-29T10:22:38.079Z,8.90
2022-12-29T10:25:32.961Z,9.00
2022-12-29T10:28:24.358Z,9.10
2022-12-29T10:31:21.163Z,9.20
2022-12-29T10:34:21.152Z,9.20
2022-12-29T10:37:26.432Z,9.30
2022-12-29T10:40:25.553Z,9.30
2022-12-29T10:43:25.259Z,9.30
2022-12-29T10:46:18.259Z,9.30
2022-12-29T10:49:08.434Z,9.40
2022-12-29T10:52:00.620Z,9.30
2022-12-29T10:54:55.050Z,9.40
2022-12-29T10:57:46.277Z,9.30
2022-12-29T11:00:36.475Z,9.30
2022-12-29T11:03:55.360Z,9.30
2022-12-29T11:06:45.770Z,9.30
2022-12-29T11:09:42.384Z,9.30
2022-12-29T11:12:33.746Z,9.20
2022-12-29T11:15:23.610Z,9.30
2022-12-29T11:18:25.649Z,9.20
2022-12-29T11:21:29.736Z,9.20
2022-12-29T11:24:23.964Z,9.20
2022-12-29T11:27:18.281Z,9.30
2022-12-29T11:30:26.051Z,9.30
2022-12-29T11:33:14.617Z,9.30
2022-12-29T11:36:08.361Z,9.30
2022-12-29T11:38:58.080Z,9.20
2022-12-29T11:41:54.969Z,9.20
2022-12-29T11:44:47.188Z,9.20
2022-12-29T11:47:37.513Z,9.10
2022-12-29T11:50:30.468Z,9.10
2022-12-29T11:53:23.939Z,9.20
2022-12-29T11:56:16.610Z,9.10
2022-12-29T11:59:37.687Z,9.10
2022-12-29T12:02:46.388Z,9.00
2022-12-29T12:05:42.055Z,9.00
2022-12-29T12:08:37.960Z,8.90
2022-12-29T12:11:36.867Z,8.90
2022-12-29T12:14:33.240Z,8.90
2022-12-29T12:17:28.470Z,8.90
2022-12-29T12:20:23.115Z,9.00
2022-12-29T12:23:24.289Z,9.10
2022-12-29T12:29:50.272Z,9.40
2022-12-29T12:32:46.909Z,9.50
2022-12-29T12:35:44.113Z,9.70
2022-12-29T12:38:44.957Z,9.80
2022-12-29T12:41:48.120Z,9.80
2022-12-29T12:44:47.244Z,9.70
2022-12-29T12:47:49.886Z,9.70
2022-12-29T12:50:51.503Z,9.60
2022-12-29T12:53:52.631Z,9.60
2022-12-29T12:56:59.813Z,9.60
2022-12-29T12:59:59.356Z,9.50
2022-12-29T13:03:02.389Z,9.60
2022-12-29T13:06:06.829Z,9.70
2022-12-29T13:09:13.822Z,9.80
2022-12-29T13:12:18.459Z,9.90
2022-12-29T13:18:27.764Z,9.80
2022-12-29T13:21:29.913Z,9.80
2022-12-29T13:24:24.630Z,9.80
2022-12-29T13:27:20.641Z,9.80
2022-12-29T13:30:15.130Z,9.80
2022-12-29T13:33:09.161Z,9.70
2022-12-29T13:36:02.985Z,9.60
2022-12-29T13:38:55.719Z,9.70
2022-12-29T13:41:48.640Z,9.60
2022-12-29T13:44:45.190Z,9.60
2022-12-29T13:47:39.266Z,9.60
2022-12-29T13:50:29.457Z,9.50
2022-12-29T13:53:27.689Z,9.40
2022-12-29T13:56:21.780Z,9.30
2022-12-29T13:59:21.173Z,9.20
2022-12-29T14:02:21.925Z,9.20
2022-12-29T14:05:32.256Z,9.20
2022-12-29T14:08:21.289Z,9.10
2022-12-29T14:11:12.219Z,9.10
2022-12-29T14:14:12.979Z,9.10
2022-12-29T14:17:15.353Z,9.00
2022-12-29T14:20:06.197Z,9.00
2022-12-29T14:23:03.221Z,9.00
2022-12-29T14:26:01.159Z,9.00
2022-12-29T14:28:50.673Z,8.90
2022-12-29T14:31:42.066Z,8.90
2022-12-29T14:34:41.554Z,8.90
2022-12-29T14:37:32.040Z,8.90
2022-12-29T14:40:28.076Z,8.90
2022-12-29T14:43:23.209Z,8.90
2022-12-29T14:46:11.860Z,8.80
2022-12-29T14:49:02.291Z,8.70
2022-12-29T14:51:55.001Z,8.60
2022-12-29T14:54:47.227Z,8.50
2022-12-29T14:57:39.430Z,8.50
2022-12-29T15:00:32.907Z,8.40
2022-12-29T15:03:25.013Z,8.40
2022-12-29T15:06:17.944Z,8.50
2022-12-29T15:09:18.660Z,8.50
2022-12-29T15:12:21.395Z,8.40
2022-12-29T15:15:22.483Z,8.40
2022-12-29T15:18:25.816Z,8.40
2022-12-29T15:21:16.540Z,8.30
2022-12-29T15:24:07.462Z,8.20
2022-12-29T15:27:00.893Z,8.10
2022-12-29T15:29:49.860Z,8.00
2022-12-29T15:32:44.690Z,7.90
2022-12-29T15:35:38.347Z,7.80
2022-12-29T15:38:34.612Z,7.70
2022-12-29T15:41:55.856Z,7.70
2022-12-29T15:44:46.458Z,7.70
2022-12-29T15:47:36.709Z,7.60
2022-12-29T15:50:28.709Z,7.50
2022-12-29T15:53:29.457Z,7.50
2022-12-29T15:56:18.652Z,7.40
2022-12-29T15:59:26.371Z,7.50
2022-12-29T16:02:15.341Z,7.50
2022-12-29T16:05:19.233Z,7.40
2022-12-29T16:08:34.819Z,7.40
2022-12-29T16:11:27.322Z,7.40
2022-12-29T16:14:21.849Z,7.40
2022-12-29T16:17:16.803Z,7.30
2022-12-29T16:20:17.911Z,7.30
2022-12-29T16:23:06.924Z,7.30
2022-12-29T16:25:58.547Z,7.20
2022-12-29T16:28:52.122Z,7.10
2022-12-29T16:31:53.417Z,7.10
2022-12-29T16:34:46.266Z,7.00
2022-12-29T16:37:38.486Z,6.90
2022-12-29T16:40:31.315Z,6.80
2022-12-29T16:43:25.529Z,6.80
2022-12-29T16:46:31.143Z,7.00
2022-12-29T16:49:22.479Z,7.00
2022-12-29T16:52:16.012Z,7.00
2022-12-29T16:55:04.925Z,7.00
2022-12-29T16:57:57.411Z,7.00
2022-12-29T17:00:48.576Z,7.00
2022-12-29T17:03:41.709Z,7.00
2022-12-29T17:06:33.454Z,7.00
2022-12-29T17:09:23.736Z,7.00
2022-12-29T17:12:16.678Z,7.00
2022-12-29T17:15:11.010Z,7.00
2022-12-29T17:18:01.429Z,6.90
2022-12-29T17:20:50.091Z,6.80
2022-12-29T17:23:40.073Z,6.80
2022-12-29T17:26:32.558Z,6.70
2022-12-29T17:29:30.494Z,6.60
2022-12-29T17:32:19.314Z,6.70
2022-12-29T17:35:14.610Z,6.70
2022-12-29T17:38:03.166Z,6.70
2022-12-29T17:40:53.359Z,6.70
2022-12-29T17:43:42.287Z,6.80
2022-12-29T17:46:31.052Z,6.90
2022-12-29T17:49:20.278Z,6.80
2022-12-29T17:52:09.042Z,6.80
2022-12-29T17:54:57.788Z,6.70
2022-12-29T17:57:47.988Z,6.70
2022-12-29T18:00:37.197Z,6.70
2022-12-29T18:03:28.743Z,6.60
2022-12-29T18:06:17.530Z,6.50
2022-12-29T18:09:08.667Z,6.50
2022-12-29T18:11:57.349Z,6.50
2022-12-29T18:14:47.423Z,6.50
2022-12-29T18:17:36.008Z,6.40
2022-12-29T18:20:24.612Z,6.40
2022-12-29T18:23:19.712Z,6.40
2022-12-29T18:26:15.484Z,6.30
2022-12-29T18:29:04.091Z,6.40
2022-12-29T18:31:54.097Z,6.40
2022-12-29T18:34:43.459Z,6.40
2022-12-29T18:37:32.022Z,6.30
2022-12-29T18:40:20.762Z,6.30
2022-12-29T18:43:11.251Z,6.30
2022-12-29T18:45:59.909Z,6.30
2022-12-29T18:48:49.960Z,6.20
2022-12-29T18:51:38.673Z,6.30
2022-12-29T18:54:30.595Z,6.40
2022-12-29T18:57:19.189Z,6.40
2022-12-29T19:00:09.671Z,6.40
2022-12-29T19:02:58.372Z,6.30
2022-12-29T19:05:49.878Z,6.30
2022-12-29T19:08:39.208Z,6.30
2022-12-29T19:11:27.841Z,6.30
2022-12-29T19:14:18.558Z,6.30
2022-12-29T19:17:10.190Z,6.40
2022-12-29T19:19:58.829Z,6.50
2022-12-29T19:22:49.699Z,6.60
2022-12-29T19:25:39.310Z,6.60
2022-12-29T19:28:29.449Z,6.60
2022-12-29T19:31:18.224Z,6.70
2022-12-29T19:34:06.984Z,6.70
2022-12-29T19:36:56.827Z,6.70
2022-12-29T19:39:47.721Z,6.70
2022-12-29T19:42:36.911Z,6.70
2022-12-29T19:45:25.669Z,6.50
2022-12-29T19:48:16.070Z,6.50
2022-12-29T19:51:06.603Z,6.40
2022-12-29T19:53:56.087Z,6.30
2022-12-29T19:56:46.092Z,6.20
2022-12-29T19:59:34.722Z,6.10
2022-12-29T20:02:25.775Z,6.10
2022-12-29T20:05:14.622Z,6.00
2022-12-29T20:08:03.229Z,6.00
2022-12-29T20:10:58.842Z,6.00
2022-12-29T20:13:49.243Z,5.90
2022-12-29T20:16:54.724Z,5.90
2022-12-29T20:19:46.522Z,5.80
2022-12-29T20:22:35.189Z,5.80
2022-12-29T20:28:32.793Z,5.80
2022-12-29T20:31:26.128Z,5.90
2022-12-29T20:34:15.232Z,5.90
2022-12-29T20:37:04.679Z,5.90
2022-12-29T20:39:53.308Z,5.90
2022-12-29T20:42:42.131Z,5.90
2022-12-29T20:45:30.819Z,6.00
2022-12-29T20:48:21.071Z,6.00
2022-12-29T20:51:10.311Z,6.00
2022-12-29T20:53:59.698Z,6.00
2022-12-29T20:56:48.808Z,6.00
2022-12-29T20:59:37.589Z,6.00
2022-12-29T21:02:26.353Z,6.00
2022-12-29T21:05:25.206Z,6.10
2022-12-29T21:08:15.311Z,6.10
2022-12-29T21:11:05.147Z,6.10
2022-12-29T21:13:54.029Z,6.10
2022-12-29T21:16:42.706Z,6.20
2022-12-29T21:19:31.478Z,6.20
2022-12-29T21:22:21.408Z,6.20
2022-12-29T21:25:10.669Z,6.30
2022-12-29T21:27:59.297Z,6.20
2022-12-29T21:30:49.142Z,6.20
2022-12-29T21:33:38.635Z,6.10
2022-12-29T21:36:28.197Z,6.10
2022-12-29T21:39:18.281Z,6.10
2022-12-29T21:42:06.870Z,6.00
2022-12-29T21:45:18.275Z,5.90
2022-12-29T21:48:25.189Z,5.90
2022-12-29T21:51:32.791Z,5.80
2022-12-29T21:54:42.060Z,5.80
2022-12-29T21:57:48.105Z,5.90
2022-12-29T22:00:53.983Z,6.00
2022-12-29T22:03:59.827Z,6.10
2022-12-29T22:07:06.078Z,6.10
2022-12-29T22:10:13.431Z,6.10
2022-12-29T22:13:03.407Z,6.10
2022-12-29T22:15:52.153Z,6.10
2022-12-29T22:18:41.000Z,6.10
2022-12-29T22:21:29.595Z,6.20
2022-12-29T22:24:18.329Z,6.30
2022-12-29T22:27:08.338Z,6.30
2022-12-29T22:29:56.940Z,6.30
2022-12-29T22:32:45.834Z,6.40
2022-12-29T22:35:34.702Z,6.40
2022-12-29T22:38:23.319Z,6.40
2022-12-29T22:41:11.909Z,6.40
2022-12-29T22:44:01.914Z,6.40
2022-12-29T22:46:50.543Z,6.40
2022-12-29T22:49:39.157Z,6.30
2022-12-29T22:52:27.728Z,6.30
2022-12-29T22:55:16.429Z,6.10
2022-12-29T22:58:05.087Z,6.00
2022-12-29T23:00:55.128Z,5.80
2022-12-29T23:03:44.549Z,5.70
2022-12-29T23:06:33.812Z,5.60
2022-12-29T23:09:24.052Z,5.50
2022-12-29T23:12:12.762Z,5.50
2022-12-29T23:15:01.583Z,5.40
2022-12-29T23:17:51.587Z,5.40
2022-12-29T23:20:40.511Z,5.30
2022-12-29T23:23:49.277Z,5.20
2022-12-29T23:26:40.337Z,5.10
2022-12-29T23:29:28.947Z,5.10
2022-12-29T23:32:17.830Z,5.10
2022-12-29T23:35:08.558Z,5.00
2022-12-29T23:37:57.299Z,5.10
2022-12-29T23:40:46.138Z,5.20
2022-12-29T23:43:35.589Z,5.40
2022-12-29T23:46:26.334Z,5.50
2022-12-29T23:49:15.177Z,5.60
2022-12-29T23:52:05.326Z,5.70
2022-12-29T23:54:53.970Z,5.70
2022-12-29T23:57:42.589Z,5.70
